createdAt,value
2018-02-22T00:00:06.420Z,0.81
2018-02-22T00:01:06.436Z,0.78
2018-02-22T00:02:06.452Z,0.72
2018-02-22T00:03:06.471Z,0.74
2018-02-22T00:04:06.478Z,0.69
2018-02-22T00:05:06.500Z,0.79
2018-02-22T00:06:06.511Z,0.74
2018-02-22T00:07:06.534Z,0.63
2018-02-22T00:08:06.542Z,0.66
2018-02-22T00:09:06.571Z,0.67
2018-02-22T00:10:06.581Z,0.66
2018-02-22T00:11:06.592Z,0.66
2018-02-22T00:12:06.612Z,0.67
2018-02-22T00:13:06.622Z,0.69
2018-02-22T00:14:06.644Z,0.69
2018-02-22T00:15:06.656Z,0.61
2018-02-22T00:16:06.675Z,0.67
2018-02-22T00:17:06.687Z,0.56
2018-02-22T00:18:06.708Z,0.53
2018-02-22T00:19:06.718Z,0.61
2018-02-22T00:20:06.740Z,0.53
2018-02-22T00:21:06.749Z,0.50
2018-02-22T00:22:06.772Z,0.56
2018-02-22T00:23:06.782Z,0.47
2018-02-22T00:24:06.803Z,0.52
2018-02-22T00:25:06.815Z,0.53
2018-02-22T00:26:06.830Z,0.52
2018-02-22T00:27:06.853Z,0.48
2018-02-22T00:28:06.868Z,0.50
2018-02-22T00:29:06.877Z,0.48
2018-02-22T00:30:06.893Z,0.52
2018-02-22T00:31:06.916Z,0.53
2018-02-22T00:32:06.931Z,0.47
2018-02-22T00:33:06.941Z,0.52
2018-02-22T00:34:06.958Z,0.45
2018-02-22T00:35:06.979Z,0.39
2018-02-22T00:36:06.995Z,0.44
2018-02-22T00:37:07.009Z,0.41
2018-02-22T00:38:07.022Z,0.44
2018-02-22T00:39:07.044Z,0.44
2018-02-22T00:40:07.058Z,0.47
2018-02-22T00:41:07.068Z,0.50
2018-02-22T00:42:07.090Z,0.47
2018-02-22T00:43:07.101Z,0.56
2018-02-22T00:44:07.119Z,0.48
2018-02-22T00:45:07.139Z,0.42
2018-02-22T00:46:07.155Z,0.44
2018-02-22T00:47:07.166Z,0.35
2018-02-22T00:48:07.182Z,0.48
2018-02-22T00:49:07.203Z,0.48
2018-02-22T00:50:07.213Z,0.42
2018-02-22T00:51:07.242Z,0.44
2018-02-22T00:52:07.250Z,0.41
2018-02-22T00:53:07.259Z,0.44
2018-02-22T00:54:07.279Z,0.39
2018-02-22T00:55:07.298Z,0.38
2018-02-22T00:56:07.313Z,0.35
2018-02-22T00:57:07.324Z,0.35
2018-02-22T00:58:07.341Z,0.34
2018-02-22T00:59:07.361Z,0.42
2018-02-22T01:00:07.376Z,0.28
2018-02-22T01:01:07.388Z,0.44
2018-02-22T01:02:07.405Z,0.39
2018-02-22T01:03:07.426Z,0.32
2018-02-22T01:04:07.442Z,0.31
2018-02-22T01:05:07.451Z,0.28
2018-02-22T01:06:07.467Z,0.37
2018-02-22T01:07:07.489Z,0.34
2018-02-22T01:08:07.499Z,0.35
2018-02-22T01:09:07.520Z,0.38
2018-02-22T01:10:07.531Z,0.34
2018-02-22T01:11:07.554Z,0.34
2018-02-22T01:12:07.563Z,0.31
2018-02-22T01:13:07.584Z,0.27
2018-02-22T01:14:07.594Z,0.27
2018-02-22T01:15:07.617Z,0.31
2018-02-22T01:16:07.625Z,0.28
2018-02-22T01:17:07.648Z,0.23
2018-02-22T01:18:07.658Z,0.21
2018-02-22T01:19:07.680Z,0.13
2018-02-22T01:20:07.689Z,0.17
2018-02-22T01:21:07.713Z,0.28
2018-02-22T01:22:07.727Z,0.21
2018-02-22T01:23:07.740Z,0.16
2018-02-22T01:24:07.758Z,0.19
2018-02-22T01:25:07.769Z,0.17
2018-02-22T01:26:07.790Z,0.16
2018-02-22T01:27:07.800Z,0.16
2018-02-22T01:28:07.822Z,0.10
2018-02-22T01:29:07.832Z,0.21
2018-02-22T01:30:07.854Z,0.16
2018-02-22T01:31:07.865Z,0.14
2018-02-22T01:32:07.885Z,0.13
2018-02-22T01:33:07.896Z,0.13
2018-02-22T01:34:07.916Z,0.14
2018-02-22T01:35:07.928Z,0.13
2018-02-22T01:36:07.948Z,0.09
2018-02-22T01:37:07.959Z,0.09
2018-02-22T01:38:07.974Z,0.09
2018-02-22T01:39:08.003Z,0.14
2018-02-22T01:40:08.012Z,0.13
2018-02-22T01:41:08.022Z,0.19
2018-02-22T01:42:08.039Z,0.09
2018-02-22T01:43:08.060Z,0.17
2018-02-22T01:44:08.074Z,0.13
2018-02-22T01:45:08.085Z,0.21
2018-02-22T01:46:08.102Z,0.19
2018-02-22T01:47:08.123Z,0.19
2018-02-22T01:48:08.137Z,0.23
2018-02-22T01:49:08.147Z,0.28
2018-02-22T01:50:08.164Z,0.23
2018-02-22T01:51:08.185Z,0.14
2018-02-22T01:52:08.201Z,0.19
2018-02-22T01:53:08.214Z,0.16
2018-02-22T01:54:08.233Z,0.19
2018-02-22T01:55:08.248Z,0.32
2018-02-22T01:56:08.264Z,0.13
2018-02-22T01:57:08.274Z,0.19
2018-02-22T01:58:08.296Z,0.13
2018-02-22T01:59:08.306Z,0.16
2018-02-22T02:00:08.327Z,0.13
2018-02-22T02:01:08.343Z,0.26
2018-02-22T02:02:08.352Z,0.17
2018-02-22T02:03:08.375Z,0.26
2018-02-22T02:04:08.401Z,0.23
2018-02-22T02:05:08.406Z,0.24
2018-02-22T02:06:08.416Z,0.21
2018-02-22T02:07:08.438Z,0.16
2018-02-22T02:08:08.446Z,0.24
2018-02-22T02:09:08.469Z,0.20
2018-02-22T02:10:08.484Z,0.27
2018-02-22T02:11:08.500Z,0.26
2018-02-22T02:12:08.510Z,0.28
2018-02-22T02:13:08.531Z,0.24
2018-02-22T02:14:08.547Z,0.31
2018-02-22T02:15:08.559Z,0.21
2018-02-22T02:16:08.574Z,0.21
2018-02-22T02:17:08.588Z,0.26
2018-02-22T02:18:08.603Z,0.28
2018-02-22T02:19:08.625Z,0.26
2018-02-22T02:20:08.641Z,0.23
2018-02-22T02:21:08.651Z,0.21
2018-02-22T02:22:08.666Z,0.23
2018-02-22T02:23:08.688Z,0.28
2018-02-22T02:24:08.705Z,0.31
2018-02-22T02:25:08.714Z,0.32
2018-02-22T02:26:08.735Z,0.35
2018-02-22T02:27:08.751Z,0.31
2018-02-22T02:28:08.760Z,0.28
2018-02-22T02:29:08.783Z,0.27
2018-02-22T02:30:08.798Z,0.23
2018-02-22T02:31:08.813Z,0.21
2018-02-22T02:32:08.823Z,0.20
2018-02-22T02:33:08.838Z,0.21
2018-02-22T02:34:08.855Z,0.16
2018-02-22T02:35:08.876Z,0.19
2018-02-22T02:36:08.891Z,0.23
2018-02-22T02:37:08.904Z,0.19
2018-02-22T02:38:08.917Z,0.26
2018-02-22T02:39:08.943Z,0.26
2018-02-22T02:40:08.955Z,0.24
2018-02-22T02:41:08.966Z,0.27
2018-02-22T02:42:08.983Z,0.31
2018-02-22T02:43:08.995Z,0.21
2018-02-22T02:44:09.011Z,0.17
2018-02-22T02:45:09.032Z,0.21
2018-02-22T02:46:09.042Z,0.24
2018-02-22T02:47:09.065Z,0.20
2018-02-22T02:48:09.074Z,0.20
2018-02-22T02:49:09.091Z,0.21
2018-02-22T02:50:09.112Z,0.10
2018-02-22T02:51:09.122Z,0.13
2018-02-22T02:52:09.143Z,0.14
2018-02-22T02:53:09.150Z,0.17
2018-02-22T02:54:09.174Z,0.13
2018-02-22T02:55:09.184Z,0.06
2018-02-22T02:56:09.203Z,0.14
2018-02-22T02:57:09.213Z,0.08
2018-02-22T02:58:09.235Z,0.19
2018-02-22T02:59:09.250Z,0.16
2018-02-22T03:00:09.267Z,0.05
2018-02-22T03:01:09.277Z,0.06
2018-02-22T03:02:09.298Z,0.03
2018-02-22T03:03:09.309Z,0.08
2018-02-22T03:04:09.328Z,0.03
2018-02-22T03:05:09.344Z,0.06
2018-02-22T03:06:09.360Z,0.03
2018-02-22T03:07:09.375Z,0.02
2018-02-22T03:08:09.394Z,0.08
2018-02-22T03:09:09.407Z,0.03
2018-02-22T03:10:09.416Z,0.03
2018-02-22T03:11:09.439Z,-0.02
2018-02-22T03:12:09.453Z,0.03
2018-02-22T03:13:09.463Z,0.03
2018-02-22T03:14:09.486Z,0.02
2018-02-22T03:15:09.500Z,0.03
2018-02-22T03:16:09.516Z,-0.01
2018-02-22T03:17:09.531Z,0.03
2018-02-22T03:18:09.547Z,-0.04
2018-02-22T03:19:09.557Z,-0.04
2018-02-22T03:20:09.572Z,0.05
2018-02-22T03:21:09.588Z,-0.02
2018-02-22T03:22:09.610Z,0.02
2018-02-22T03:23:09.620Z,-0.01
2018-02-22T03:24:09.635Z,-0.02
2018-02-22T03:25:09.657Z,-0.05
2018-02-22T03:26:09.673Z,-0.05
2018-02-22T03:27:09.683Z,-0.05
2018-02-22T03:28:09.698Z,-0.01
2018-02-22T03:29:09.720Z,-0.05
2018-02-22T03:30:09.731Z,-0.04
2018-02-22T03:31:09.753Z,-0.07
2018-02-22T03:32:09.768Z,-0.10
2018-02-22T03:33:09.782Z,-0.19
2018-02-22T03:34:09.798Z,-0.16
2018-02-22T03:35:09.814Z,-0.18
2018-02-22T03:36:09.824Z,-0.13
2018-02-22T03:37:09.838Z,-0.09
2018-02-22T03:38:09.861Z,-0.15
2018-02-22T03:39:09.871Z,-0.07
2018-02-22T03:40:09.894Z,-0.09
2018-02-22T03:41:09.902Z,-0.15
2018-02-22T03:42:09.923Z,-0.05
2018-02-22T03:43:09.934Z,-0.05
2018-02-22T03:44:09.955Z,-0.07
2018-02-22T03:45:09.965Z,-0.10
2018-02-22T03:46:09.986Z,-0.05
2018-02-22T03:47:09.996Z,-0.09
2018-02-22T03:48:10.012Z,-0.12
2018-02-22T03:49:10.031Z,-0.18
2018-02-22T03:50:10.042Z,-0.13
2018-02-22T03:51:10.059Z,-0.07
2018-02-22T03:52:10.079Z,-0.02
2018-02-22T03:53:10.089Z,-0.07
2018-02-22T03:54:10.104Z,-0.15
2018-02-22T03:55:10.127Z,-0.07
2018-02-22T03:56:10.136Z,-0.13
2018-02-22T03:57:10.157Z,-0.15
2018-02-22T03:58:10.167Z,-0.10
2018-02-22T03:59:10.189Z,-0.10
2018-02-22T04:00:10.198Z,-0.05
2018-02-22T04:01:10.221Z,-0.13
2018-02-22T04:02:10.235Z,-0.05
2018-02-22T04:03:10.245Z,-0.15
2018-02-22T04:04:10.266Z,-0.15
2018-02-22T04:05:10.277Z,-0.07
2018-02-22T04:06:10.298Z,-0.15
2018-02-22T04:07:10.309Z,-0.27
2018-02-22T04:08:10.329Z,-0.16
2018-02-22T04:09:10.338Z,-0.23
2018-02-22T04:10:10.360Z,-0.13
2018-02-22T04:11:10.369Z,-0.16
2018-02-22T04:12:10.390Z,-0.18
2018-02-22T04:13:10.407Z,-0.23
2018-02-22T04:14:10.422Z,-0.20
2018-02-22T04:15:10.432Z,-0.19
2018-02-22T04:16:10.453Z,-0.25
2018-02-22T04:17:10.464Z,-0.16
2018-02-22T04:18:10.479Z,-0.19
2018-02-22T04:19:10.500Z,-0.28
2018-02-22T04:20:10.519Z,-0.33
2018-02-22T04:21:10.528Z,-0.27
2018-02-22T04:22:10.542Z,-0.30
2018-02-22T04:23:10.562Z,-0.33
2018-02-22T04:24:10.577Z,-0.28
2018-02-22T04:25:10.588Z,-0.30
2018-02-22T04:26:10.607Z,-0.27
2018-02-22T04:27:10.625Z,-0.27
2018-02-22T04:28:10.639Z,-0.23
2018-02-22T04:29:10.649Z,-0.31
2018-02-22T04:30:10.665Z,-0.33
2018-02-22T04:31:10.687Z,-0.27
2018-02-22T04:32:10.701Z,-0.25
2018-02-22T04:33:10.710Z,-0.28
2018-02-22T04:34:10.728Z,-0.28
2018-02-22T04:35:10.750Z,-0.33
2018-02-22T04:36:10.765Z,-0.27
2018-02-22T04:37:10.774Z,-0.33
2018-02-22T04:38:10.788Z,-0.28
2018-02-22T04:39:10.815Z,-0.34
2018-02-22T04:40:10.826Z,-0.23
2018-02-22T04:41:10.837Z,-0.31
2018-02-22T04:42:10.851Z,-0.30
2018-02-22T04:43:10.873Z,-0.36
2018-02-22T04:44:10.888Z,-0.33
2018-02-22T04:45:10.898Z,-0.30
2018-02-22T04:46:10.913Z,-0.33
2018-02-22T04:47:10.936Z,-0.33
2018-02-22T04:48:10.959Z,-0.38
2018-02-22T04:49:10.959Z,-0.34
2018-02-22T04:50:10.975Z,-0.33
2018-02-22T04:51:10.996Z,-0.36
2018-02-22T04:52:11.005Z,-0.30
2018-02-22T04:53:11.027Z,-0.41
2018-02-22T04:54:11.038Z,-0.36
2018-02-22T04:55:11.059Z,-0.33
2018-02-22T04:56:11.067Z,-0.31
2018-02-22T04:57:11.090Z,-0.36
2018-02-22T04:58:11.099Z,-0.31
2018-02-22T04:59:11.120Z,-0.41
2018-02-22T05:00:11.129Z,-0.41
2018-02-22T05:01:11.151Z,-0.40
2018-02-22T05:02:11.163Z,-0.43
2018-02-22T05:03:11.182Z,-0.43
2018-02-22T05:04:11.245Z,-0.43
2018-02-22T05:05:11.214Z,-0.51
2018-02-22T05:06:11.229Z,-0.46
2018-02-22T05:07:11.238Z,-0.49
2018-02-22T05:08:11.260Z,-0.37
2018-02-22T05:09:11.270Z,-0.41
2018-02-22T05:10:11.291Z,-0.43
2018-02-22T05:11:11.301Z,-0.43
2018-02-22T05:12:11.321Z,-0.43
2018-02-22T05:13:11.334Z,-0.43
2018-02-22T05:14:11.389Z,-0.48
2018-02-22T05:15:11.370Z,-0.46
2018-02-22T05:16:11.383Z,-0.43
2018-02-22T05:17:11.393Z,-0.41
2018-02-22T05:18:11.410Z,-0.45
2018-02-22T05:19:11.429Z,-0.48
2018-02-22T05:20:11.445Z,-0.43
2018-02-22T05:21:11.454Z,-0.43
2018-02-22T05:22:11.472Z,-0.48
2018-02-22T05:23:11.492Z,-0.45
2018-02-22T05:24:11.507Z,-0.41
2018-02-22T05:25:11.518Z,-0.46
2018-02-22T05:26:11.533Z,-0.56
2018-02-22T05:27:11.554Z,-0.49
2018-02-22T05:28:11.568Z,-0.46
2018-02-22T05:29:11.579Z,-0.46
2018-02-22T05:30:11.600Z,-0.48
2018-02-22T05:31:11.611Z,-0.40
2018-02-22T05:32:11.627Z,-0.40
2018-02-22T05:33:11.646Z,-0.41
2018-02-22T05:34:11.691Z,-0.40
2018-02-22T05:35:11.705Z,-0.46
2018-02-22T05:36:11.686Z,-0.49
2018-02-22T05:37:11.708Z,-0.37
2018-02-22T05:38:11.718Z,-0.41
2018-02-22T05:39:11.738Z,-0.55
2018-02-22T05:40:11.754Z,-0.43
2018-02-22T05:41:11.765Z,-0.40
2018-02-22T05:42:11.781Z,-0.40
2018-02-22T05:43:11.802Z,-0.45
2018-02-22T05:44:11.818Z,-0.45
2018-02-22T05:45:11.826Z,-0.41
2018-02-22T05:46:11.843Z,-0.45
2018-02-22T05:47:11.863Z,-0.43
2018-02-22T05:48:11.873Z,-0.46
2018-02-22T05:49:11.894Z,-0.56
2018-02-22T05:50:11.904Z,-0.48
2018-02-22T05:51:11.925Z,-0.48
2018-02-22T05:52:11.934Z,-0.41
2018-02-22T05:53:11.955Z,-0.52
2018-02-22T05:54:11.969Z,-0.52
2018-02-22T05:55:11.987Z,-0.52
2018-02-22T05:56:11.997Z,-0.41
2018-02-22T05:57:12.017Z,-0.51
2018-02-22T05:58:12.027Z,-0.51
2018-02-22T05:59:12.049Z,-0.51
2018-02-22T06:00:12.057Z,-0.51
2018-02-22T06:01:12.079Z,-0.54
2018-02-22T06:02:12.095Z,-0.48
2018-02-22T06:03:12.105Z,-0.48
2018-02-22T06:04:12.125Z,-0.51
2018-02-22T06:05:12.136Z,-0.43
2018-02-22T06:06:12.158Z,-0.49
2018-02-22T06:07:12.167Z,-0.45
2018-02-22T06:08:12.186Z,-0.45
2018-02-22T06:09:12.197Z,-0.52
2018-02-22T06:10:12.218Z,-0.56
2018-02-22T06:11:12.237Z,-0.64
2018-02-22T06:12:12.249Z,-0.55
2018-02-22T06:13:12.259Z,-0.58
2018-02-22T06:14:12.280Z,-0.66
2018-02-22T06:15:12.292Z,-0.59
2018-02-22T06:16:12.310Z,-0.66
2018-02-22T06:17:12.326Z,-0.80
2018-02-22T06:18:12.338Z,-0.67
2018-02-22T06:19:12.358Z,-0.73
2018-02-22T06:20:12.487Z,-0.70
2018-02-22T06:21:12.388Z,-0.72
2018-02-22T06:22:12.399Z,-0.80
2018-02-22T06:23:12.419Z,-0.76
2018-02-22T06:24:12.429Z,-0.67
2018-02-22T06:25:12.453Z,-0.64
2018-02-22T06:26:12.459Z,-0.66
2018-02-22T06:27:12.476Z,-0.64
2018-02-22T06:28:12.490Z,-0.62
2018-02-22T06:29:12.511Z,-0.64
2018-02-22T06:30:12.522Z,-0.48
2018-02-22T06:31:12.543Z,-0.46
2018-02-22T06:32:12.553Z,-0.48
2018-02-22T06:33:12.568Z,-0.49
2018-02-22T06:34:12.588Z,-0.51
2018-02-22T06:35:12.603Z,-0.51
2018-02-22T06:36:12.614Z,-0.49
2018-02-22T06:37:12.639Z,-0.48
2018-02-22T06:38:12.651Z,-0.43
2018-02-22T06:39:12.661Z,-0.52
2018-02-22T06:40:12.675Z,-0.49
2018-02-22T06:41:12.696Z,-0.49
2018-02-22T06:42:12.712Z,-0.45
2018-02-22T06:43:12.723Z,-0.51
2018-02-22T06:44:12.742Z,-0.45
2018-02-22T06:45:12.753Z,-0.54
2018-02-22T06:46:12.770Z,-0.49
2018-02-22T06:47:12.787Z,-0.56
2018-02-22T06:48:12.803Z,-0.45
2018-02-22T06:49:12.820Z,-0.48
2018-02-22T06:50:12.835Z,-0.43
2018-02-22T06:51:12.846Z,-0.40
2018-02-22T06:52:12.861Z,-0.51
2018-02-22T06:53:12.881Z,-0.40
2018-02-22T06:54:12.897Z,-0.41
2018-02-22T06:55:12.907Z,-0.41
2018-02-22T06:56:12.922Z,-0.36
2018-02-22T06:57:12.944Z,-0.30
2018-02-22T06:58:12.953Z,-0.31
2018-02-22T06:59:12.978Z,-0.34
2018-02-22T07:00:12.984Z,-0.30
2018-02-22T07:01:13.006Z,-0.30
2018-02-22T07:02:13.021Z,-0.31
2018-02-22T07:03:13.037Z,-0.33
2018-02-22T07:04:13.046Z,-0.31
2018-02-22T07:05:13.062Z,-0.30
2018-02-22T07:06:13.082Z,-0.33
2018-02-22T07:07:13.092Z,-0.30
2018-02-22T07:08:13.113Z,-0.30
2018-02-22T07:09:13.124Z,-0.23
2018-02-22T07:10:13.145Z,-0.33
2018-02-22T07:11:13.156Z,-0.41
2018-02-22T07:12:13.176Z,-0.40
2018-02-22T07:13:13.186Z,-0.40
2018-02-22T07:14:13.202Z,-0.41
2018-02-22T07:15:13.219Z,-0.37
2018-02-22T07:16:13.233Z,-0.31
2018-02-22T07:17:13.253Z,-0.28
2018-02-22T07:18:13.265Z,-0.33
2018-02-22T07:19:13.284Z,-0.30
2018-02-22T07:20:13.295Z,-0.16
2018-02-22T07:21:13.311Z,-0.22
2018-02-22T07:22:13.330Z,-0.18
2018-02-22T07:23:16.887Z,-0.19
2018-02-22T07:24:13.357Z,-0.25
2018-02-22T07:25:13.378Z,-0.20
2018-02-22T07:26:13.389Z,-0.22
2018-02-22T07:27:13.411Z,-0.23
2018-02-22T07:28:13.419Z,-0.20
2018-02-22T07:29:13.440Z,-0.22
2018-02-22T07:30:13.456Z,-0.22
2018-02-22T07:31:13.475Z,-0.12
2018-02-22T07:32:13.486Z,-0.02
2018-02-22T07:33:13.503Z,-0.04
2018-02-22T07:34:13.531Z,0.01
2018-02-22T07:35:13.529Z,-0.04
2018-02-22T07:36:13.544Z,-0.05
2018-02-22T07:37:13.560Z,-0.04
2018-02-22T07:38:13.585Z,0.01
2018-02-22T07:39:13.593Z,0.03
2018-02-22T07:40:13.606Z,0.13
2018-02-22T07:41:13.627Z,0.20
2018-02-22T07:42:13.646Z,0.21
2018-02-22T07:43:13.707Z,0.23
2018-02-22T07:44:13.672Z,0.26
2018-02-22T07:45:13.692Z,0.23
2018-02-22T07:46:13.708Z,0.27
2018-02-22T07:47:13.725Z,0.32
2018-02-22T07:48:13.732Z,0.35
2018-02-22T07:49:13.754Z,0.32
2018-02-22T07:50:13.769Z,0.38
2018-02-22T07:51:13.780Z,0.32
2018-02-22T07:52:13.796Z,0.50
2018-02-22T07:53:13.814Z,0.48
2018-02-22T07:54:13.833Z,0.48
2018-02-22T07:55:13.847Z,0.52
2018-02-22T07:56:13.863Z,0.48
2018-02-22T07:57:13.880Z,0.42
2018-02-22T07:58:13.902Z,0.58
2018-02-22T07:59:13.906Z,0.57
2018-02-22T08:00:13.921Z,0.67
2018-02-22T08:01:13.944Z,0.63
2018-02-22T08:02:13.960Z,0.67
2018-02-22T08:03:13.976Z,0.63
2018-02-22T08:04:13.991Z,0.66
2018-02-22T08:05:14.003Z,0.71
2018-02-22T08:06:14.025Z,0.66
2018-02-22T08:07:14.035Z,0.74
2018-02-22T08:08:14.055Z,0.71
2018-02-22T08:09:14.072Z,0.81
2018-02-22T08:10:14.087Z,0.81
2018-02-22T08:11:14.098Z,0.81
2018-02-22T08:12:14.119Z,0.85
2018-02-22T08:13:14.129Z,0.89
2018-02-22T08:14:14.152Z,1.00
2018-02-22T08:15:14.164Z,0.94
2018-02-22T08:16:14.183Z,1.03
2018-02-22T08:17:14.197Z,1.03
2018-02-22T08:18:14.218Z,1.11
2018-02-22T08:19:14.228Z,1.17
2018-02-22T08:20:14.248Z,1.20
2018-02-22T08:21:14.258Z,1.17
2018-02-22T08:22:14.280Z,1.26
2018-02-22T08:23:14.292Z,1.15
2018-02-22T08:24:14.312Z,1.15
2018-02-22T08:25:14.322Z,1.29
2018-02-22T08:26:14.339Z,1.35
2018-02-22T08:27:14.364Z,1.32
2018-02-22T08:28:14.377Z,1.36
2018-02-22T08:29:14.395Z,1.38
2018-02-22T08:30:14.408Z,1.36
2018-02-22T08:31:14.426Z,1.53
2018-02-22T08:32:14.436Z,1.51
2018-02-22T08:33:14.458Z,1.56
2018-02-22T08:34:14.470Z,1.54
2018-02-22T08:35:14.492Z,1.56
2018-02-22T08:36:14.501Z,1.64
2018-02-22T08:37:14.524Z,1.60
2018-02-22T08:38:14.536Z,1.68
2018-02-22T08:39:14.577Z,1.72
2018-02-22T08:40:14.568Z,1.71
2018-02-22T08:41:14.592Z,1.76
2018-02-22T08:42:14.600Z,1.83
2018-02-22T08:43:14.622Z,1.74
2018-02-22T08:44:14.638Z,1.89
2018-02-22T08:45:14.649Z,2.01
2018-02-22T08:46:14.667Z,1.94
2018-02-22T08:47:14.689Z,1.93
2018-02-22T08:48:14.704Z,1.86
2018-02-22T08:49:14.717Z,1.82
2018-02-22T08:50:14.740Z,1.87
2018-02-22T08:51:14.749Z,1.90
2018-02-22T08:52:14.765Z,1.87
2018-02-22T08:53:14.790Z,1.98
2018-02-22T08:54:14.804Z,2.13
2018-02-22T08:55:14.815Z,2.12
2018-02-22T08:56:14.830Z,2.05
2018-02-22T08:57:14.854Z,2.22
2018-02-22T08:58:14.866Z,2.33
2018-02-22T08:59:14.888Z,2.49
2018-02-22T09:00:14.903Z,3.06
2018-02-22T09:01:14.916Z,4.51
2018-02-22T09:02:14.932Z,5.72
2018-02-22T09:03:14.955Z,6.73
2018-02-22T09:04:14.973Z,7.21
2018-02-22T09:05:14.983Z,8.04
2018-02-22T09:06:15.002Z,8.25
2018-02-22T09:07:15.024Z,8.03
2018-02-22T09:08:15.042Z,8.16
2018-02-22T09:09:15.056Z,8.09
2018-02-22T09:10:15.074Z,8.24
2018-02-22T09:11:15.100Z,8.14
2018-02-22T09:12:15.118Z,8.72
2018-02-22T09:13:15.136Z,8.95
2018-02-22T09:14:15.161Z,8.61
2018-02-22T09:15:15.176Z,8.58
2018-02-22T09:16:15.201Z,8.46
2018-02-22T09:17:15.216Z,8.65
2018-02-22T09:18:15.244Z,9.08
2018-02-22T09:19:15.265Z,9.23
2018-02-22T09:20:15.289Z,9.24
2018-02-22T09:21:15.307Z,9.12
2018-02-22T09:22:15.329Z,8.97
2018-02-22T09:23:15.357Z,9.01
2018-02-22T09:24:15.376Z,9.23
2018-02-22T09:25:15.404Z,9.48
2018-02-22T09:26:15.423Z,9.90
2018-02-22T09:27:15.452Z,9.84
2018-02-22T09:28:15.472Z,9.74
2018-02-22T09:29:15.539Z,9.72
2018-02-22T09:30:15.521Z,9.77
2018-02-22T09:31:15.550Z,10.28
2018-02-22T09:32:15.568Z,10.32
2018-02-22T09:33:15.601Z,10.08
2018-02-22T09:34:15.620Z,9.92
2018-02-22T09:35:15.650Z,10.33
2018-02-22T09:36:15.669Z,10.38
2018-02-22T09:37:15.700Z,10.52
2018-02-22T09:38:15.721Z,10.55
2018-02-22T09:39:15.754Z,10.95
2018-02-22T09:40:15.777Z,10.77
2018-02-22T09:41:15.798Z,11.38
2018-02-22T09:42:15.825Z,11.34
2018-02-22T09:43:15.855Z,11.15
2018-02-22T09:44:15.884Z,11.30
2018-02-22T09:45:15.903Z,11.43
2018-02-22T09:46:15.935Z,11.81
2018-02-22T09:47:15.963Z,11.94
2018-02-22T09:48:15.990Z,11.46
2018-02-22T09:49:16.013Z,11.02
2018-02-22T09:50:16.040Z,11.03
2018-02-22T09:51:16.076Z,11.24
2018-02-22T09:52:16.098Z,10.84
2018-02-22T09:53:16.120Z,10.76
2018-02-22T09:54:16.149Z,10.76
2018-02-22T09:55:16.187Z,10.57
2018-02-22T09:56:16.209Z,10.94
2018-02-22T09:57:16.231Z,10.51
2018-02-22T09:58:16.261Z,10.67
2018-02-22T09:59:16.293Z,11.18
2018-02-22T10:00:16.322Z,10.94
2018-02-22T10:01:16.342Z,11.23
2018-02-22T10:02:16.371Z,11.24
2018-02-22T10:03:16.404Z,10.88
2018-02-22T10:04:16.431Z,11.21
2018-02-22T10:05:16.457Z,11.35
2018-02-22T10:06:16.490Z,11.56
2018-02-22T10:07:16.516Z,10.98
2018-02-22T10:08:16.547Z,10.75
2018-02-22T10:09:16.565Z,10.79
2018-02-22T10:10:16.601Z,11.03
2018-02-22T10:11:16.622Z,10.87
2018-02-22T10:12:16.655Z,10.90
2018-02-22T10:13:16.679Z,10.73
2018-02-22T10:14:16.712Z,11.23
2018-02-22T10:15:16.734Z,11.20
2018-02-22T10:16:16.768Z,11.51
2018-02-22T10:17:16.790Z,11.49
2018-02-22T10:18:16.875Z,11.56
2018-02-22T10:19:16.847Z,11.38
2018-02-22T10:20:16.880Z,11.34
2018-02-22T10:21:16.902Z,11.33
2018-02-22T10:22:16.937Z,11.27
2018-02-22T10:23:16.961Z,11.24
2018-02-22T10:24:16.993Z,11.21
2018-02-22T10:25:17.017Z,11.33
2018-02-22T10:26:17.049Z,11.06
2018-02-22T10:27:17.084Z,11.24
2018-02-22T10:28:17.099Z,11.43
2018-02-22T10:29:17.134Z,11.20
2018-02-22T10:30:17.163Z,11.61
2018-02-22T10:31:17.184Z,11.46
2018-02-22T10:32:17.212Z,11.70
2018-02-22T10:33:17.241Z,10.91
2018-02-22T10:34:17.275Z,11.27
2018-02-22T10:35:17.298Z,10.84
2018-02-22T10:36:17.326Z,11.10
2018-02-22T10:37:17.360Z,11.10
2018-02-22T10:38:17.388Z,10.92
2018-02-22T10:39:17.411Z,10.61
2018-02-22T10:40:17.437Z,10.73
2018-02-22T10:41:17.472Z,11.49
2018-02-22T10:42:17.502Z,11.51
2018-02-22T10:43:17.529Z,11.15
2018-02-22T10:44:17.557Z,11.18
2018-02-22T10:45:17.579Z,11.46
2018-02-22T10:46:17.612Z,11.57
2018-02-22T10:47:17.636Z,12.07
2018-02-22T10:48:17.669Z,12.66
2018-02-22T10:49:17.743Z,12.25
2018-02-22T10:50:17.724Z,11.81
2018-02-22T10:51:17.748Z,12.37
2018-02-22T10:52:17.781Z,12.52
2018-02-22T10:53:17.805Z,12.37
2018-02-22T10:54:17.838Z,12.26
2018-02-22T10:55:17.860Z,12.70
2018-02-22T10:56:17.895Z,12.96
2018-02-22T10:57:17.918Z,13.28
2018-02-22T10:58:17.945Z,13.09
2018-02-22T10:59:17.977Z,12.65
2018-02-22T11:00:18.005Z,12.94
2018-02-22T11:01:18.037Z,12.25
2018-02-22T11:02:18.103Z,11.89
2018-02-22T11:03:18.094Z,11.91
2018-02-22T11:04:18.117Z,11.71
2018-02-22T11:05:18.146Z,12.01
2018-02-22T11:06:18.176Z,12.48
2018-02-22T11:07:18.212Z,12.01
2018-02-22T11:08:18.233Z,12.01
2018-02-22T11:09:18.266Z,12.25
2018-02-22T11:10:18.289Z,11.95
2018-02-22T11:11:18.324Z,11.53
2018-02-22T11:12:18.346Z,11.86
2018-02-22T11:13:18.385Z,12.29
2018-02-22T11:14:18.404Z,12.94
2018-02-22T11:15:18.439Z,13.01
2018-02-22T11:16:18.461Z,13.25
2018-02-22T11:17:18.496Z,12.44
2018-02-22T11:18:18.524Z,12.31
2018-02-22T11:19:18.553Z,12.53
2018-02-22T11:20:18.577Z,12.77
2018-02-22T11:21:18.604Z,12.86
2018-02-22T11:22:18.639Z,12.96
2018-02-22T11:23:18.663Z,12.62
2018-02-22T11:24:18.692Z,12.63
2018-02-22T11:25:18.726Z,12.94
2018-02-22T11:26:18.754Z,12.66
2018-02-22T11:27:18.779Z,12.47
2018-02-22T11:28:18.806Z,12.13
2018-02-22T11:29:18.843Z,12.37
2018-02-22T11:30:18.872Z,12.34
2018-02-22T11:31:18.894Z,12.58
2018-02-22T11:32:18.927Z,12.81
2018-02-22T11:33:18.972Z,12.94
2018-02-22T11:34:18.979Z,12.80
2018-02-22T11:35:19.014Z,12.66
2018-02-22T11:36:19.045Z,12.63
2018-02-22T11:37:19.070Z,12.71
2018-02-22T11:38:19.100Z,12.28
2018-02-22T11:39:19.124Z,12.05
2018-02-22T11:40:19.157Z,12.29
2018-02-22T11:41:19.185Z,11.98
2018-02-22T11:42:19.215Z,12.11
2018-02-22T11:43:19.238Z,12.36
2018-02-22T11:44:19.266Z,12.16
2018-02-22T11:45:19.304Z,12.20
2018-02-22T11:46:19.329Z,12.48
2018-02-22T11:47:19.357Z,12.94
2018-02-22T11:48:19.379Z,12.96
2018-02-22T11:49:19.414Z,12.86
2018-02-22T11:50:19.443Z,12.65
2018-02-22T11:51:19.466Z,13.16
2018-02-22T11:52:19.503Z,13.17
2018-02-22T11:53:19.522Z,12.53
2018-02-22T11:54:19.555Z,12.45
2018-02-22T11:55:19.581Z,12.81
2018-02-22T11:56:19.612Z,12.96
2018-02-22T11:57:19.634Z,13.07
2018-02-22T11:58:19.689Z,12.98
2018-02-22T11:59:19.692Z,12.28
2018-02-22T12:00:19.727Z,12.36
2018-02-22T12:01:19.747Z,12.40
2018-02-22T12:02:19.777Z,12.23
2018-02-22T12:03:19.812Z,12.00
2018-02-22T12:04:19.839Z,12.28
2018-02-22T12:05:19.862Z,12.51
2018-02-22T12:06:19.896Z,12.80
2018-02-22T12:07:19.923Z,12.36
2018-02-22T12:08:19.951Z,12.45
2018-02-22T12:09:19.978Z,12.01
2018-02-22T12:10:20.007Z,11.97
2018-02-22T12:11:20.040Z,11.95
2018-02-22T12:12:20.058Z,12.61
2018-02-22T12:13:20.091Z,12.31
2018-02-22T12:14:20.113Z,12.44
2018-02-22T12:15:20.149Z,12.66
2018-02-22T12:16:20.169Z,12.66
2018-02-22T12:17:20.204Z,12.62
2018-02-22T12:18:20.232Z,12.88
2018-02-22T12:19:20.290Z,12.78
2018-02-22T12:20:20.281Z,12.48
2018-02-22T12:21:20.317Z,12.15
2018-02-22T12:22:20.338Z,11.91
2018-02-22T12:23:20.367Z,11.59
2018-02-22T12:24:20.392Z,11.67
2018-02-22T12:25:20.420Z,12.05
2018-02-22T12:26:20.454Z,12.33
2018-02-22T12:27:20.475Z,12.15
2018-02-22T12:28:20.504Z,12.29
2018-02-22T12:29:20.537Z,12.43
2018-02-22T12:30:20.617Z,12.71
2018-02-22T12:31:20.587Z,12.84
2018-02-22T12:32:20.612Z,13.20
2018-02-22T12:33:20.647Z,13.02
2018-02-22T12:34:20.668Z,12.26
2018-02-22T12:35:20.701Z,12.29
2018-02-22T12:36:20.728Z,12.55
2018-02-22T12:37:20.751Z,12.63
2018-02-22T12:38:20.778Z,12.96
2018-02-22T12:39:20.810Z,13.03
2018-02-22T12:40:20.838Z,13.16
2018-02-22T12:41:20.859Z,12.61
2018-02-22T12:42:20.887Z,12.59
2018-02-22T12:43:20.923Z,12.40
2018-02-22T12:44:20.946Z,12.04
2018-02-22T12:45:20.972Z,12.55
2018-02-22T12:46:20.996Z,12.44
2018-02-22T12:47:21.029Z,12.47
2018-02-22T12:48:21.054Z,12.16
2018-02-22T12:49:21.077Z,11.31
2018-02-22T12:50:21.110Z,11.89
2018-02-22T12:51:21.130Z,12.40
2018-02-22T12:52:21.161Z,12.53
2018-02-22T12:53:21.187Z,12.66
2018-02-22T12:54:21.217Z,11.85
2018-02-22T12:55:21.237Z,12.86
2018-02-22T12:56:21.311Z,13.54
2018-02-22T12:57:21.291Z,13.37
2018-02-22T12:58:21.326Z,13.24
2018-02-22T12:59:21.346Z,13.44
2018-02-22T13:00:21.377Z,13.01
2018-02-22T13:01:21.398Z,12.61
2018-02-22T13:02:21.429Z,12.48